createdAt,value
2023-01-27T00:01:44.645Z,1.23
2023-01-27T00:04:26.919Z,0.80
2023-01-27T00:07:15.601Z,1.35
2023-01-27T00:09:58.866Z,1.27
2023-01-27T00:13:07.597Z,0.80
2023-01-27T00:15:49.842Z,1.35
2023-01-27T00:18:37.652Z,1.33
2023-01-27T00:21:43.602Z,1.40
2023-01-27T00:24:38.163Z,1.00
2023-01-27T00:27:27.582Z,1.42
2023-01-27T00:30:18.131Z,1.00
2023-01-27T00:33:16.605Z,1.50
2023-01-27T00:36:00.401Z,1.08
2023-01-27T00:38:50.636Z,1.73
2023-01-27T00:41:34.058Z,1.38
2023-01-27T00:44:23.612Z,1.45
2023-01-27T00:47:18.598Z,1.75
2023-01-27T00:50:00.560Z,0.98
2023-01-27T00:52:49.606Z,1.23
2023-01-27T00:55:31.620Z,1.80
2023-01-27T00:58:21.630Z,1.65
2023-01-27T01:01:07.970Z,1.55
2023-01-27T01:03:56.603Z,1.23
2023-01-27T01:06:39.576Z,1.42
2023-01-27T01:09:28.620Z,1.50
2023-01-27T01:12:12.517Z,1.85
2023-01-27T01:14:54.655Z,1.75
2023-01-27T01:17:45.619Z,1.40
2023-01-27T01:20:27.524Z,1.42
2023-01-27T01:23:16.658Z,1.50
2023-01-27T01:25:59.018Z,2.17
2023-01-27T01:28:47.617Z,1.27
2023-01-27T01:31:29.676Z,0.82
2023-01-27T01:34:20.654Z,1.38
2023-01-27T01:37:02.555Z,1.02
2023-01-27T01:39:51.640Z,1.48
2023-01-27T01:43:08.622Z,1.80
2023-01-27T01:45:53.851Z,1.40
2023-01-27T01:48:47.617Z,0.82
2023-01-27T01:51:36.269Z,1.25
2023-01-27T01:54:30.686Z,2.13
2023-01-27T01:57:17.240Z,1.48
2023-01-27T02:00:08.685Z,1.45
2023-01-27T02:02:54.770Z,1.38
2023-01-27T02:05:49.610Z,1.60
2023-01-27T02:08:40.086Z,1.88
2023-01-27T02:11:28.620Z,1.77
2023-01-27T02:14:19.611Z,1.25
2023-01-27T02:17:02.864Z,1.63
2023-01-27T02:20:01.630Z,1.73
2023-01-27T02:22:49.837Z,1.73
2023-01-27T02:25:46.673Z,1.25
2023-01-27T02:28:28.858Z,1.38
2023-01-27T02:31:16.822Z,2.13
2023-01-27T02:34:07.664Z,2.10
2023-01-27T02:36:53.974Z,2.05
2023-01-27T02:39:47.701Z,1.65
2023-01-27T02:42:31.033Z,1.25
2023-01-27T02:45:20.627Z,1.67
2023-01-27T02:48:02.715Z,2.20
2023-01-27T02:50:51.744Z,1.80
2023-01-27T02:53:35.223Z,1.52
2023-01-27T02:56:23.731Z,1.73
2023-01-27T02:59:08.042Z,2.20
2023-01-27T03:01:57.633Z,1.60
2023-01-27T03:04:39.924Z,1.70
2023-01-27T03:07:30.739Z,2.65
2023-01-27T03:10:19.627Z,1.45
2023-01-27T03:13:01.859Z,2.55
2023-01-27T03:16:14.503Z,2.25
2023-01-27T03:18:57.468Z,2.15
2023-01-27T03:21:44.645Z,2.22
2023-01-27T03:24:28.904Z,1.83
2023-01-27T03:27:20.728Z,2.00
2023-01-27T03:30:44.779Z,1.83
2023-01-27T03:33:33.539Z,1.42
2023-01-27T03:36:56.732Z,2.33
2023-01-27T03:39:57.183Z,2.42
2023-01-27T03:43:03.643Z,2.38
2023-01-27T03:46:07.188Z,2.72
2023-01-27T03:51:39.683Z,2.13
2023-01-27T03:54:28.636Z,2.20
2023-01-27T03:57:10.629Z,2.05
2023-01-27T03:59:59.678Z,2.05
2023-01-27T04:03:12.646Z,2.05
2023-01-27T04:06:13.533Z,2.08
2023-01-27T04:09:01.664Z,2.42
2023-01-27T04:12:02.011Z,2.13
2023-01-27T04:14:49.643Z,2.45
2023-01-27T04:17:38.838Z,2.30
2023-01-27T04:20:27.668Z,2.38
2023-01-27T04:23:10.834Z,2.50
2023-01-27T04:26:00.655Z,2.47
2023-01-27T04:28:55.657Z,2.30
2023-01-27T04:31:43.803Z,2.90
2023-01-27T04:34:25.949Z,2.78
2023-01-27T04:37:15.681Z,2.45
2023-01-27T04:39:58.905Z,3.17
2023-01-27T04:42:47.717Z,2.67
2023-01-27T04:45:30.137Z,2.72
2023-01-27T04:48:18.738Z,2.75
2023-01-27T04:51:01.000Z,3.15
2023-01-27T04:53:50.750Z,3.15
2023-01-27T04:56:43.744Z,3.03
2023-01-27T04:59:26.655Z,2.28
2023-01-27T05:02:15.789Z,2.85
2023-01-27T05:04:58.071Z,3.13
2023-01-27T05:07:46.666Z,3.05
2023-01-27T05:10:28.683Z,2.53
2023-01-27T05:13:18.684Z,3.58
2023-01-27T05:16:09.047Z,2.97
2023-01-27T05:18:58.761Z,3.10
2023-01-27T05:21:40.623Z,3.38
2023-01-27T05:24:29.815Z,2.78
2023-01-27T05:27:17.721Z,3.80
2023-01-27T05:30:14.670Z,2.92
2023-01-27T05:33:02.674Z,3.28
2023-01-27T05:35:45.001Z,3.65
2023-01-27T05:38:33.691Z,3.00
2023-01-27T05:41:18.016Z,4.07
2023-01-27T05:44:06.690Z,3.67
2023-01-27T05:46:51.018Z,4.20
2023-01-27T05:49:38.682Z,4.00
2023-01-27T05:52:27.766Z,3.70
2023-01-27T05:55:10.069Z,3.40
2023-01-27T05:57:58.753Z,4.05
2023-01-27T06:00:40.840Z,3.35
2023-01-27T06:03:30.688Z,4.15
2023-01-27T06:06:14.004Z,4.28
2023-01-27T06:09:02.815Z,3.33
2023-01-27T06:11:44.697Z,3.92
2023-01-27T06:14:33.687Z,4.55
2023-01-27T06:17:22.716Z,4.18
2023-01-27T06:20:05.919Z,4.32
2023-01-27T06:22:53.696Z,4.10
2023-01-27T06:25:35.987Z,3.42
2023-01-27T06:28:29.443Z,4.00
2023-01-27T06:31:20.185Z,4.30
2023-01-27T06:34:01.713Z,4.80
2023-01-27T06:36:45.137Z,4.38
2023-01-27T06:39:33.848Z,3.67
2023-01-27T06:42:28.724Z,4.22
2023-01-27T06:45:11.778Z,4.78
2023-01-27T06:48:08.863Z,4.47
2023-01-27T06:50:50.887Z,4.68
2023-01-27T06:53:41.765Z,4.80
2023-01-27T06:56:23.835Z,5.20
2023-01-27T06:59:12.774Z,4.20
2023-01-27T07:01:54.770Z,4.78
2023-01-27T07:04:43.709Z,5.97
2023-01-27T07:07:32.764Z,6.53
2023-01-27T07:10:18.157Z,5.65
2023-01-27T07:13:12.820Z,5.13
2023-01-27T07:15:55.053Z,5.80
2023-01-27T07:18:43.703Z,6.47
2023-01-27T07:21:27.084Z,5.55
2023-01-27T07:24:15.713Z,5.47
2023-01-27T07:26:58.948Z,5.80
2023-01-27T07:29:46.708Z,5.05
2023-01-27T07:32:28.939Z,6.13
2023-01-27T07:35:17.792Z,6.65
2023-01-27T07:38:06.705Z,5.18
2023-01-27T07:40:48.810Z,5.05
2023-01-27T07:43:38.707Z,5.20
2023-01-27T07:46:22.833Z,6.10
2023-01-27T07:49:11.802Z,6.07
2023-01-27T07:51:54.226Z,4.70
2023-01-27T07:54:42.716Z,5.72
2023-01-27T07:57:24.673Z,5.38
2023-01-27T08:00:14.981Z,5.28
2023-01-27T08:03:03.775Z,6.25
2023-01-27T08:05:46.053Z,5.97
2023-01-27T08:08:33.753Z,5.90
2023-01-27T08:11:16.952Z,6.55
2023-01-27T08:14:04.829Z,5.88
2023-01-27T08:16:48.018Z,5.72
2023-01-27T08:19:35.737Z,5.80
2023-01-27T08:22:24.120Z,6.53
2023-01-27T08:25:12.749Z,6.93
2023-01-27T08:27:57.932Z,6.38
2023-01-27T08:30:52.759Z,6.53
2023-01-27T08:33:43.772Z,6.65
2023-01-27T08:36:27.005Z,4.97
2023-01-27T08:39:15.737Z,6.05
2023-01-27T08:41:57.953Z,5.43
2023-01-27T08:44:46.738Z,5.75
2023-01-27T08:47:28.914Z,5.95
2023-01-27T08:50:19.786Z,4.75
2023-01-27T08:53:01.989Z,5.53
2023-01-27T08:55:50.716Z,6.07
2023-01-27T08:58:39.820Z,4.95
2023-01-27T09:01:22.380Z,5.82
2023-01-27T09:04:10.808Z,5.50
2023-01-27T09:06:58.330Z,5.60
2023-01-27T09:09:46.822Z,5.40
2023-01-27T09:12:28.786Z,5.35
2023-01-27T09:15:17.832Z,6.15
2023-01-27T09:17:59.731Z,5.35
2023-01-27T09:20:48.751Z,4.40
2023-01-27T09:23:38.786Z,5.78
2023-01-27T09:26:21.057Z,5.20
2023-01-27T09:29:08.729Z,5.15
2023-01-27T09:31:51.058Z,5.03
2023-01-27T09:34:39.780Z,5.90
2023-01-27T09:37:23.214Z,5.15
2023-01-27T09:40:19.748Z,4.93
2023-01-27T09:46:25.903Z,5.50
2023-01-27T09:49:31.769Z,4.68
2023-01-27T09:52:47.298Z,5.65
2023-01-27T09:55:50.861Z,4.70
2023-01-27T09:58:48.996Z,3.50
2023-01-27T10:01:38.917Z,5.32
2023-01-27T10:04:49.713Z,5.05
2023-01-27T10:07:57.893Z,5.15
2023-01-27T10:10:50.110Z,4.60
2023-01-27T10:13:41.988Z,5.10
2023-01-27T10:16:49.844Z,4.75
2023-01-27T10:19:46.424Z,4.40
2023-01-27T10:22:42.890Z,4.57
2023-01-27T10:28:26.803Z,4.90
2023-01-27T10:31:23.857Z,4.63
2023-01-27T10:34:19.841Z,4.18
2023-01-27T10:37:14.649Z,3.75
2023-01-27T10:40:08.747Z,4.35
2023-01-27T10:43:02.214Z,4.43
2023-01-27T10:45:55.810Z,4.15
2023-01-27T10:48:44.609Z,4.68
2023-01-27T10:51:39.797Z,4.10
2023-01-27T10:54:28.298Z,4.18
2023-01-27T10:57:21.800Z,5.50
2023-01-27T11:00:41.922Z,4.47
2023-01-27T11:03:19.121Z,4.40
2023-01-27T11:06:10.758Z,3.78
2023-01-27T11:08:56.987Z,4.10
2023-01-27T11:11:55.823Z,3.90
2023-01-27T11:14:46.169Z,4.32
2023-01-27T11:17:42.774Z,4.75
2023-01-27T11:20:30.779Z,3.95
2023-01-27T11:23:27.822Z,4.38
2023-01-27T11:26:25.791Z,4.13
2023-01-27T11:29:21.052Z,3.08
2023-01-27T11:32:15.932Z,3.67
2023-01-27T11:35:12.132Z,3.15
2023-01-27T11:38:14.877Z,2.50
2023-01-27T11:46:32.476Z,3.22
2023-01-27T11:49:24.866Z,3.05
2023-01-27T11:52:09.980Z,2.75
2023-01-27T11:55:02.887Z,2.45
2023-01-27T11:57:51.047Z,3.42
2023-01-27T12:00:48.893Z,3.45
2023-01-27T12:03:36.502Z,3.15
2023-01-27T12:06:32.816Z,3.05
2023-01-27T12:09:21.876Z,2.90
2023-01-27T12:12:27.535Z,2.95
2023-01-27T12:15:18.798Z,3.15
2023-01-27T12:18:03.445Z,3.05
2023-01-27T12:20:53.952Z,3.25
2023-01-27T12:23:39.293Z,2.95
2023-01-27T12:26:27.907Z,2.55
2023-01-27T12:29:32.881Z,3.42
2023-01-27T12:32:24.817Z,3.10
2023-01-27T12:35:07.072Z,3.10
2023-01-27T12:37:57.808Z,4.00
2023-01-27T12:40:48.854Z,2.60
2023-01-27T12:43:30.834Z,2.88
2023-01-27T12:46:37.855Z,3.17
2023-01-27T12:49:22.635Z,2.88
2023-01-27T12:52:15.867Z,2.80
2023-01-27T12:54:57.889Z,3.45
2023-01-27T12:57:47.840Z,3.58
2023-01-27T13:00:30.559Z,2.42
2023-01-27T13:03:25.859Z,3.17
2023-01-27T13:06:15.959Z,3.17
2023-01-27T13:09:00.136Z,2.78
2023-01-27T13:11:48.874Z,3.83
2023-01-27T13:14:31.117Z,3.63
2023-01-27T13:17:43.820Z,3.97
2023-01-27T13:20:30.127Z,3.15
2023-01-27T13:23:25.865Z,4.43
2023-01-27T13:26:17.130Z,3.15
2023-01-27T13:29:09.855Z,3.05
2023-01-27T13:32:04.171Z,3.70
2023-01-27T13:34:48.845Z,2.95
2023-01-27T13:37:36.157Z,2.92
2023-01-27T13:40:33.833Z,3.08
2023-01-27T13:43:23.696Z,2.90
2023-01-27T13:46:22.029Z,2.67
2023-01-27T13:49:20.826Z,2.90
2023-01-27T13:52:03.060Z,3.33
2023-01-27T13:54:52.839Z,3.63
2023-01-27T13:57:51.048Z,2.55
2023-01-27T14:00:45.827Z,3.42
2023-01-27T14:03:46.108Z,4.40
2023-01-27T14:06:49.983Z,2.53
2023-01-27T14:09:40.795Z,3.28
2023-01-27T14:12:43.933Z,2.80
2023-01-27T14:15:34.089Z,1.98
2023-01-27T14:18:24.923Z,2.72
2023-01-27T14:21:40.003Z,3.55
2023-01-27T14:24:34.180Z,2.97
2023-01-27T14:27:37.968Z,2.80
2023-01-27T14:30:39.861Z,2.80
2023-01-27T14:33:42.937Z,2.67
2023-01-27T14:39:27.891Z,3.28
2023-01-27T14:42:17.081Z,3.50
2023-01-27T14:45:10.838Z,3.20
2023-01-27T14:48:04.197Z,1.85
2023-01-27T14:50:59.979Z,4.18
2023-01-27T14:54:00.889Z,2.78
2023-01-27T14:56:51.426Z,3.38
2023-01-27T14:59:51.863Z,2.95
2023-01-27T15:02:45.214Z,2.88
2023-01-27T15:05:43.860Z,2.63
2023-01-27T15:08:34.887Z,3.05
2023-01-27T15:14:43.531Z,3.05
2023-01-27T15:17:47.904Z,3.05
2023-01-27T15:21:00.956Z,2.08
2023-01-27T15:24:02.138Z,3.08
2023-01-27T15:26:55.968Z,2.78
2023-01-27T15:29:51.963Z,3.38
2023-01-27T15:32:43.955Z,2.53
2023-01-27T15:35:51.215Z,2.88
2023-01-27T15:38:42.930Z,3.30
2023-01-27T15:41:25.166Z,3.55
2023-01-27T15:44:23.910Z,3.05
2023-01-27T15:47:16.075Z,3.10
2023-01-27T15:50:20.852Z,3.78
2023-01-27T15:53:10.080Z,3.40
2023-01-27T15:56:00.986Z,3.72
2023-01-27T15:58:53.900Z,3.70
2023-01-27T16:01:37.265Z,3.65
2023-01-27T16:04:33.116Z,3.78
2023-01-27T16:07:26.072Z,3.97
2023-01-27T16:10:16.914Z,3.35
2023-01-27T16:13:16.015Z,4.57
2023-01-27T16:16:35.980Z,3.72
2023-01-27T16:19:23.821Z,3.95
2023-01-27T16:22:17.881Z,2.80
2023-01-27T16:25:19.864Z,3.33
2023-01-27T16:28:08.127Z,3.47
2023-01-27T16:31:15.960Z,3.47
2023-01-27T16:34:00.997Z,3.63
2023-01-27T16:39:43.115Z,3.17
2023-01-27T16:42:33.942Z,4.40
2023-01-27T16:45:27.907Z,3.55
2023-01-27T16:48:12.136Z,3.95
2023-01-27T16:51:01.945Z,4.45
2023-01-27T16:53:44.143Z,4.38
2023-01-27T16:56:34.998Z,4.93
2023-01-27T16:59:29.164Z,3.85
2023-01-27T17:02:27.951Z,4.10
2023-01-27T17:05:14.532Z,3.80
2023-01-27T17:08:23.886Z,4.28
2023-01-27T17:14:02.770Z,3.05
2023-01-27T17:16:57.000Z,3.55
2023-01-27T17:19:39.150Z,3.70
2023-01-27T17:22:35.937Z,3.85
2023-01-27T17:25:31.198Z,3.08
2023-01-27T17:28:18.944Z,4.70
2023-01-27T17:31:19.024Z,3.97
2023-01-27T17:34:09.911Z,5.00
2023-01-27T17:37:13.155Z,3.80
2023-01-27T17:45:38.991Z,4.38
2023-01-27T17:48:21.222Z,5.00
2023-01-27T17:51:10.952Z,4.03
2023-01-27T17:53:53.165Z,5.72
2023-01-27T17:56:41.896Z,4.75
2023-01-27T17:59:34.898Z,4.13
2023-01-27T18:02:24.821Z,3.72
2023-01-27T18:05:17.909Z,4.28
2023-01-27T18:08:03.833Z,4.53
2023-01-27T18:10:53.941Z,4.28
2023-01-27T18:13:38.293Z,4.10
2023-01-27T18:16:28.910Z,5.28
2023-01-27T18:19:23.702Z,4.57
2023-01-27T18:22:33.907Z,4.28
2023-01-27T18:25:26.973Z,3.95
2023-01-27T18:28:09.115Z,4.03
2023-01-27T18:30:59.044Z,4.30
2023-01-27T18:33:42.984Z,4.45
2023-01-27T18:36:40.019Z,4.10
2023-01-27T18:39:42.124Z,4.13
2023-01-27T18:42:33.970Z,4.82
2023-01-27T18:45:26.923Z,4.28
2023-01-27T18:48:11.369Z,4.43
2023-01-27T18:51:00.931Z,4.20
2023-01-27T18:53:43.417Z,5.45
2023-01-27T18:56:31.962Z,4.57
2023-01-27T18:59:15.349Z,4.88
2023-01-27T19:02:03.944Z,5.20
2023-01-27T19:04:46.298Z,5.68
2023-01-27T19:07:34.926Z,5.30
2023-01-27T19:10:19.342Z,4.50
2023-01-27T19:13:07.942Z,5.38
2023-01-27T19:15:53.815Z,5.28
2023-01-27T19:18:45.928Z,5.50
2023-01-27T19:21:34.959Z,5.32
2023-01-27T19:24:18.280Z,4.88
2023-01-27T19:27:06.948Z,5.53
2023-01-27T19:29:49.332Z,4.90
2023-01-27T19:32:38.947Z,5.13
2023-01-27T19:35:21.206Z,4.97
2023-01-27T19:38:11.914Z,5.50
2023-01-27T19:40:57.435Z,5.80
2023-01-27T19:43:47.946Z,5.53
2023-01-27T19:46:31.316Z,5.72
2023-01-27T19:49:24.072Z,6.50
2023-01-27T19:52:12.950Z,6.78
2023-01-27T19:54:56.765Z,5.32
2023-01-27T19:57:45.014Z,5.28
2023-01-27T20:00:29.861Z,5.88
2023-01-27T20:03:19.032Z,5.57
2023-01-27T20:06:07.373Z,5.82
2023-01-27T20:08:56.186Z,4.95
2023-01-27T20:11:39.408Z,5.45
2023-01-27T20:14:32.125Z,4.65
2023-01-27T20:17:20.963Z,5.43
2023-01-27T20:20:03.234Z,4.13
2023-01-27T20:22:52.929Z,4.80
2023-01-27T20:25:36.204Z,5.63
2023-01-27T20:28:25.023Z,5.43
2023-01-27T20:31:07.207Z,4.78
2023-01-27T20:33:58.057Z,5.25
2023-01-27T20:36:40.272Z,5.45
2023-01-27T20:39:30.015Z,5.93
2023-01-27T20:42:12.239Z,4.78
2023-01-27T20:45:00.934Z,4.90
2023-01-27T20:47:50.011Z,5.40
2023-01-27T20:50:31.912Z,5.50
2023-01-27T20:53:20.949Z,5.45
2023-01-27T20:56:04.970Z,4.93
2023-01-27T20:58:53.956Z,5.25
2023-01-27T21:01:36.917Z,5.47
2023-01-27T21:04:25.960Z,5.00
2023-01-27T21:07:08.557Z,5.00
2023-01-27T21:09:56.943Z,5.30
2023-01-27T21:12:47.023Z,4.78
2023-01-27T21:15:29.204Z,5.03
2023-01-27T21:18:19.052Z,4.47
2023-01-27T21:21:06.970Z,4.22
2023-01-27T21:23:55.990Z,4.97
2023-01-27T21:26:43.080Z,4.63
2023-01-27T21:29:32.960Z,4.00
2023-01-27T21:32:21.271Z,4.20
2023-01-27T21:35:05.010Z,4.50
2023-01-27T21:37:59.937Z,4.78
2023-01-27T21:40:41.892Z,4.45
2023-01-27T21:43:48.100Z,5.15
2023-01-27T21:46:31.837Z,4.10
2023-01-27T21:49:20.941Z,4.72
2023-01-27T21:52:02.763Z,4.85
2023-01-27T21:54:50.963Z,4.55
2023-01-27T21:57:33.326Z,5.13
2023-01-27T22:00:24.960Z,5.22
2023-01-27T22:03:08.500Z,5.90
2023-01-27T22:05:49.977Z,5.38
2023-01-27T22:08:38.966Z,5.40
2023-01-27T22:11:21.162Z,5.50
2023-01-27T22:14:09.965Z,4.97
2023-01-27T22:16:52.306Z,5.22
2023-01-27T22:19:42.959Z,5.35
2023-01-27T22:22:25.028Z,4.88
2023-01-27T22:25:14.294Z,4.65
2023-01-27T22:27:56.364Z,5.30
2023-01-27T22:30:45.997Z,4.78
2023-01-27T22:33:35.037Z,5.40
2023-01-27T22:36:19.307Z,4.30
2023-01-27T22:39:08.055Z,5.35
2023-01-27T22:41:50.858Z,5.28
2023-01-27T22:44:39.074Z,5.50
2023-01-27T22:47:21.265Z,5.70
2023-01-27T22:50:08.983Z,5.53
2023-01-27T22:52:53.304Z,5.60
2023-01-27T22:55:41.966Z,6.22
2023-01-27T22:58:24.874Z,6.00
2023-01-27T23:01:14.068Z,6.13
2023-01-27T23:04:03.039Z,5.72
2023-01-27T23:06:48.444Z,6.80
2023-01-27T23:09:39.116Z,6.50
2023-01-27T23:15:10.084Z,7.07
2023-01-27T23:17:52.073Z,5.70
2023-01-27T23:20:41.040Z,6.82
2023-01-27T23:23:23.841Z,7.00
2023-01-27T23:26:14.089Z,6.88
2023-01-27T23:28:57.388Z,6.80
2023-01-27T23:31:46.111Z,6.30
2023-01-27T23:34:37.161Z,7.28
2023-01-27T23:37:19.203Z,6.72
2023-01-27T23:40:09.989Z,7.20
2023-01-27T23:42:53.273Z,7.00
2023-01-27T23:45:41.973Z,5.65
2023-01-27T23:48:27.582Z,7.38
2023-01-27T23:51:16.996Z,6.75
2023-01-27T23:53:59.141Z,7.22
2023-01-27T23:56:47.061Z,6.40
2023-01-27T23:59:36.981Z,6.57
